Tiempo atmosférico en la estación meteorológica de Salamanca, Salamanca (775 m.)



Fecha
DESCASC
Temp. máxima en grados centígrados (hora)
DESCASC
Temp. mínima en grados centígrados (hora)
DESCASC
Temp. media en grados centígrados
DESCASC
Racha de viento máxima en m/sg (hora)
DESCASC
Velocidad máxima media en intervalos de 10 minutos(hora)
DESCASC
Precipitaciones diarias en mm
DESCASC
Precipitaciones de 00:00 a 06:00 en mm
DESCASC
Precipitaciones de 06:00 a 12:00 en mm
DESCASC
Precipitaciones de 12:00 a 18:00 en mm
DESCASC
Precipitaciones de 18:00 a 24:00 en mm
DESCASC
11-12-2019 9.6 (15:00) 4.6 (23:59) 7.1 10 (15:50) 5.28 (16:10) 0.5 0 0.5 0 0
08-12-2019 11.3 (21:00) 0.5 (00:00) 5.9 6.11 (12:50) 3.06 (12:00) 2.1 0 0 2.1 0
07-12-2019 14.2 (16:10) 0.2 (00:00) 7.2 4.72 (15:00) 2.5 (15:00) 0 0 0 0 0
06-12-2019 12.7 (16:20) 1.1 (00:00) 6.9 3.06 (01:10) 1.67 (01:50) 0 0 0 0 0
05-12-2019 10 (16:00) 2.4 (00:00) 6.2 8.61 (20:40) 3.89 (20:40) 0 0 0 0 0
04-12-2019 7.6 (16:40) -0.6 (07:50) 3.5 5 (15:10) 2.5 (15:30) 0 0 0 0 0
03-12-2019 8.1 (15:40) 0.2 (00:00) 4.2 6.39 (13:30) 3.33 (11:20) 0 0 0 0 0
02-12-2019 10.5 (15:20) 2.4 (00:00) 6.5 13.33 (13:00) 5.28 (15:30) 0 0 0 0 0
01-12-2019 11 (14:00) 5.2 (00:00) 8.1 8.33 (19:30) 3.33 (19:20) 4.6 0.3 2.4 1.9 0
30-11-2019 13.8 (11:20) 5.8 (00:00) 9.8 13.06 (11:30) 6.39 (11:30) 8.2 0 0 8.1 0.1
29-11-2019 14.5 (15:20) 11.9 (00:00) 13.2 9.17 (07:30) 4.44 (00:10) 2.1 0 1.5 0.6 0
28-11-2019 14.2 (14:40) 8.8 (05:20) 11.5 12.78 (14:40) 6.11 (14:40) 0 0 0 0 0
27-11-2019 13.3 (14:30) 6.9 (00:00) 10.1 12.22 (14:20) 6.39 (02:10) 0 0 0 0 0
26-11-2019 16 (13:50) 9.1 (00:00) 12.6 16.39 (13:10) 7.5 (21:20) 3.1 0 0.1 0.1 2.9
25-11-2019 14.7 (14:30) 9.7 (00:10) 12.2 10.56 (02:30) 5.28 (02:30) 1.5 1.4 0.1 0 0
24-11-2019 10.7 (16:50) 4.1 (00:00) 7.4 11.39 (22:40) 5.28 (22:40) 0.1 0 0 0 0.1
23-11-2019 11 (16:10) 4.8 (00:00) 7.9 14.72 (01:20) 6.39 (01:10) 0 0 0 0 0
22-11-2019 13.7 (14:20) 7.1 (00:00) 10.4 16.67 (10:10) 7.78 (16:00) 7.1 0.6 2.2 3.4 0.9
21-11-2019 11.7 (16:40) 4.7 (00:00) 8.2 8.61 (14:20) 4.72 (14:20) 1.8 0.4 1.1 0.2 0.1
20-11-2019 8.6 (16:00) 4.8 (23:40) 6.7 10.28 (13:40) 4.17 (16:10) 4.7 1 3.6 0.1 0
19-11-2019 10.2 (15:00) 0.1 (00:00) 5.1 5 (23:59) 2.22 (17:20) 0 0 0 0 0
18-11-2019 10.2 (17:00) 2.1 (00:00) 6.1 4.44 (06:30) 1.94 (06:30) 0 0 0 0 0
17-11-2019 11.4 (14:00) 3.6 (00:00) 7.5 11.39 (13:20) 5.28 (13:20) 4.2 0 0 4.1 0.1
16-11-2019 8.7 (16:00) -0.7 (-00:0) 4 8.89 (13:10) 4.17 (13:20) 0 0 0 0 0
15-11-2019 8.6 (16:00) 1.7 (00:00) 5.2 8.89 (02:50) 4.44 (12:30) 0 0 0 0 0

Gráficas

Temp. máximas Temp. mínimas Temp. medias Precipitaciones Rachas de viento máximas Velocidades máximas media en intervalos de 10 minutos

Datos horarios

Fecha y hora oficial Temperatura (ºC) Velocidad del viento (km/h) Dirección del viento Racha (km/h) Dirección de racha Precipitación (mm) Presión (hPa) Tendencia (hPa) Humedad (%)
2019-12-14 23:00:00 9.5 7 Sur 18 Sur 0 928.4 -0.6 78
2019-12-14 22:00:00 9.5 9 Sur 21 Sur 0 928.7 -0.3 81
2019-12-14 21:00:00 9.3 9 Sur 19 Sur 0 928.8 -0.1 83
2019-12-14 20:00:00 9.6 6 Sur 22 Sudoeste 0 929 0 82
2019-12-14 19:00:00 10 8 Sudoeste 24 Sur 0 929 0.2 79
2019-12-14 18:00:00 10.4 13 Sur 25 Sur 0 928.9 -0.5 75
2019-12-14 17:00:00 11.3 11 Sur 31 Sudoeste 0 929 -0.7 68
2019-12-14 16:00:00 11.4 13 Sur 26 Sur 0 928.8 -1.4 74
2019-12-14 15:00:00 11.1 13 Sudoeste 31 Sudoeste 0 929.4 -1.6 74
2019-12-14 14:00:00 11.1 9 Sudoeste 24 Sur 0 929.7 -1.5 76
2019-12-14 13:00:00 11 15 Sudoeste 30 Sudoeste 0 930.2 -0.8 74
2019-12-14 12:00:00 10.3 9 Sudoeste 27 Sudoeste 0 931 0.3 82
2019-12-14 11:00:00 9.3 8 Sudoeste 22 Sudoeste 0 931.2 0.5 89
2019-12-14 10:00:00 9 9 Sur 18 Sur 0 931 0.7 89
2019-12-14 09:00:00 8.6 11 Sur 23 Sur 0 930.7 0.5 87
2019-12-14 08:00:00 8.6 11 Sudoeste 23 Sudoeste 0 930.7 0.3 85
2019-12-14 07:00:00 8.8 12 Sudoeste 26 Sudoeste 0 930.3 -0.3 84
2019-12-14 06:00:00 8.8 11 Sudoeste 29 Sur 0 930.2 -0.5 83
2019-12-14 05:00:00 8.8 14 Sudoeste 31 Sudoeste 0 930.4 0.1 84
2019-12-14 04:00:00 8.9 13 Sudoeste 27 Sur 0 930.6 0.1 85
2019-12-14 03:00:00 8.8 13 Sudoeste 26 Sur 0 930.7 -0.1 84
2019-12-14 02:00:00 8.4 10 Sudoeste 24 Sudoeste 0 930.3 -0.3 85
2019-12-14 01:00:00 9 11 Sudoeste 30 Sudoeste 0 930.5 0.1 85
2019-12-14 00:00:00 9.6 10 Sudoeste 27 Oeste 0 930.8 0.7 86
2019-12-13 23:00:00 9.7 12 Sudoeste 29 Oeste 0 930.6 0.7 88
2019-12-13 22:00:00 9.7 13 Sudoeste 38 Sudoeste 0 930.4 0.5 88
2019-12-13 21:00:00 10.2 13 Sudoeste 33 Sudoeste 0 930.1 0.5 88
2019-12-13 20:00:00 10.5 12 Sudoeste 27 Sudoeste 0 929.9 0.2 85
2019-12-13 19:00:00 11 10 Sudoeste 32 Sudoeste 0 929.9 0 85
2019-12-13 18:00:00 11.3 13 Sudoeste 36 Sudoeste 0 929.6 -0.1 83
2019-12-13 17:00:00 11.9 12 Sudoeste 33 Sudoeste 0 929.7 0.2 81
2019-12-13 16:00:00 12.1 12 Sudoeste 35 Sudoeste 0 929.9 0.1 82
2019-12-13 15:00:00 12.2 15 Sudoeste 37 Oeste 0 929.7 -0.6 82
2019-12-13 14:00:00 12.4 19 Sudoeste 42 Sudoeste 0 929.5 -0.7 81
2019-12-13 13:00:00 11.6 17 Sudoeste 42 Sudoeste 0 929.8 0.5 82
2019-12-13 12:00:00 11.1 16 Sudoeste 35 Sudoeste 0 930.3 1.4 82
2019-12-13 11:00:00 11 15 Sudoeste 41 Sudoeste 0 930.2 1.2 80
2019-12-13 10:00:00 10.8 22 Sudoeste 42 Sudoeste 0 929.3 1 81
2019-12-13 09:00:00 10.2 16 Sudoeste 39 Sudoeste 0 928.9 1.1 85
2019-12-13 08:00:00 10.1 14 Sudoeste 41 Sudoeste 0 929 1.5 85
2019-12-13 07:00:00 10.1 14 Sudoeste 31 Sur 0 928.3 0.6 83
2019-12-13 06:00:00 10.5 13 Sudoeste 41 Sudoeste 0 927.8 0.5 85
2019-12-13 05:00:00 10.9 12 Sudoeste 33 Oeste 0 927.5 0.7 86
2019-12-13 04:00:00 11 11 Sudoeste 35 Sudoeste 0 927.7 0.4 89
2019-12-13 03:00:00 11 16 Sudoeste 37 Sudoeste 0 927.3 0.6 90
2019-12-13 02:00:00 11.2 15 Sudoeste 39 Sudoeste 0 926.8 0 89
2019-12-13 01:00:00 11.3 19 Sudoeste 38 Sudoeste 0 927.3 0.9 88
2019-12-13 00:00:00 11.3 19 Sudoeste 38 Sudoeste 0 926.7 0 87
2019-12-12 23:00:00 11.2 17 Sudoeste 43 Sudoeste 0 926.8 -0.2 88
2019-12-12 22:00:00 10.9 18 Sudoeste 39 Sudoeste 0 926.4 0 89
2019-12-12 21:00:00 10.7 16 Sudoeste 39 Sudoeste 0 926.7 0.2 90
2019-12-12 20:00:00 10.4 18 Sudoeste 44 Sudoeste 0 927 0 90
2019-12-12 19:00:00 9.8 22 Sudoeste 49 Sudoeste 0 926.4 -0.8 91
2019-12-12 18:00:00 9.1 21 Sudoeste 49 Sudoeste 0 926.5 -1.5 91
2019-12-12 17:00:00 8.5 21 Sudoeste 50 Sudoeste 0.1 927 -1.9 91
2019-12-12 16:00:00 8.2 17 Sudoeste 51 Sudoeste 0 927.2 -2.5 90
2019-12-12 15:00:00 8.1 19 Sudoeste 47 Sudoeste 0 928 -3.1 87
2019-12-12 14:00:00 7.8 17 Sudoeste 41 Sudoeste 0.1 928.9 -3 90
2019-12-12 13:00:00 7.7 19 Sudoeste 42 Sudoeste 0 929.7 -2.6 84
2019-12-12 12:00:00 7.4 17 Sudoeste 40 Sudoeste 0 931.1 -0.9 86
2019-12-12 11:00:00 7.1 18 Sudoeste 39 Sudoeste 0 931.9 -0.7 86
2019-12-12 10:00:00 6.6 18 Sudoeste 36 Sudoeste 0 932.3 -1 87
2019-12-12 09:00:00 6.1 16 Sudoeste 33 Sudoeste 0 932 -1.7 90
2019-12-12 08:00:00 6 15 Sur 33 Sur 0.1 932.6 -1.9 91
2019-12-12 07:00:00 5.8 13 Sudoeste 32 Sudoeste 0 933.3 -2 91
2019-12-12 06:00:00 5.4 12 Sudoeste 27 Sur 0 933.7 -1.8 92
2019-12-12 05:00:00 4.7 10 Sudoeste 26 Sudoeste 0 934.5 -1.5 92
2019-12-12 04:00:00 4.7 8 Sudoeste 22 Sudoeste 0 935.3 -1.7 91
2019-12-12 03:00:00 4.8 11 Sudoeste 25 Sur 0 935.5 -1.9 90
2019-12-12 02:00:00 4.5 8 Sudoeste 20 Sudoeste 0 936 -1.4 90
2019-12-12 01:00:00 4.6 8 Sudoeste 16 Sudoeste 0 937 -0.9 87
2019-12-12 00:00:00 4.6 8 Sudoeste 24 Sudoeste 0 937.4 -0.6 82
2019-12-11 23:00:00 4.9 9 Sudoeste 24 Sudoeste 0 937.4 -0.5 79
2019-12-11 22:00:00 5 6 Sudoeste 18 Sudoeste 0 937.9 0 73
2019-12-11 21:00:00 5.2 7 Sur 19 Sur 0 938 0.6 69
2019-12-11 20:00:00 5.2 5 Sudoeste 13 Oeste 0 937.9 0.9 68
2019-12-11 19:00:00 6.1 8 Sudoeste 24 Oeste 0 937.9 1.1 63
2019-12-11 18:00:00 6.6 7 Sudoeste 23 Sudoeste 0 937.4 0.8 61
2019-12-11 17:00:00 8.3 12 Oeste 32 Oeste 0 937 0.3 56
2019-12-11 16:00:00 9.3 17 Oeste 36 Sudoeste 0 936.8 0.3 55
2019-12-11 15:00:00 9.5 13 Oeste 27 Oeste 0 936.6 -0.4 56
2019-12-11 14:00:00 8.3 12 Oeste 26 Oeste 0 936.7 0.1 64
2019-12-11 13:00:00 8.6 14 Oeste 26 Oeste 0 936.5 0.8 65
2019-12-11 12:00:00 7.4 12 Oeste 29 Oeste 0 937 2.3 78
2019-12-11 11:00:00 6.8 15 Oeste 30 Oeste 0 936.6 2.6 84
2019-12-11 10:00:00 6.3 12 Oeste 25 Oeste 0 935.7 2.1 94
2019-12-11 09:00:00 5.3 9 Oeste 30 Oeste 0.3 934.7 0.7 91
2019-12-11 08:00:00 5.9 7 Oeste 12 Oeste 0.1 934 -0.2 73
2019-12-11 07:00:00 6.3 4 Oeste 10 Oeste 0.1 933.6 -1.3 58
2019-12-11 06:00:00 5 3 Sudeste 6 Sudeste 0 934 -1.1 63
2019-12-11 05:00:00 5.8 4 Sudeste 10 Sudoeste 0 934.2 -1.5 54
2019-12-11 04:00:00 6 5 Sur 15 Sur 0 934.9 -1.6 55
2019-12-11 03:00:00 5.6 3 Sudoeste 12 Sur 0 935.1 -1.5 61
2019-12-11 02:00:00 6.6 5 Sudoeste 12 Sudoeste 0 935.7 -1.2 56
2019-12-11 01:00:00 6.4 4 Oeste 10 Sur 0 936.5 -0.4 59
2019-12-11 00:00:00 6 4 Oeste 12 Sudoeste 0 936.6 -0.7 69
2019-12-10 23:00:00 5 0 Calma 6 Oeste 0 936.9 -0.9 78
2019-12-10 22:00:00 7 2 Oeste 7 Sudoeste 0 936.9 -0.5 72
2019-12-10 21:00:00 7.2 3 Oeste 8 Sudoeste 0 937.3 0.1 85
2019-12-10 20:00:00 7.2 5 Oeste 10 Oeste 0 937.8 0.5 82
2019-12-10 19:00:00 7.8 0 Calma 4 Este 0 937.4 -0.5 76
2019-12-10 18:00:00 9.1 3 Este 5 Este 0 937.2 -1.5 70
2019-12-10 17:00:00 10.1 3 Este 7 Este 0 937.3 -2 64
2019-12-10 16:00:00 10.3 3 Este 6 Este 0 937.9 -2.6 63
2019-12-10 15:00:00 10.8 2 Sudeste 6 Sudeste 0 938.7 -2.5 62
2019-12-10 14:00:00 9.5 0 Calma 6 Sur 0 939.3 -2.4 72
2019-12-10 13:00:00 8.1 3 Sudeste 6 Sudeste 0 940.5 -1 72
2019-12-10 12:00:00 4.8 0 Calma 6 Sudoeste 0 941.2 -0.4 94
2019-12-10 11:00:00 1.8 0 Calma 3 Este 0 941.7 0.7 98
2019-12-10 10:00:00 0.3 0 Calma 6 Sudeste 0 941.5 0.2 98
2019-12-10 09:00:00 -0.2 0 Calma 7 Este 0 941.6 -0.1 99
2019-12-10 08:00:00 0.1 3 Este 9 Este 0 941 -1 99
2019-12-10 07:00:00 0 3 Este 8 Este 0 941.3 -1.1 98
2019-12-10 06:00:00 -0.3 0 Calma 8 Este 0 941.7 -0.4 98
2019-12-10 05:00:00 0 0 Calma 7 Este 0 942 -0.8 98
2019-12-10 04:00:00 0.1 4 Este 12 Nordeste 0 942.4 -0.7 98
2019-12-10 03:00:00 0.6 0 Calma 6 Este 0 942.1 -1 96
2019-12-10 02:00:00 1.6 2 Este 5 Este 0 942.8 -0.4 95
2019-12-10 01:00:00 2.1 0 Calma 5 Este 0 943.1 0 95
2019-12-10 00:00:00 2.8 0 Calma 3 Sudeste 0 943.1 0.3 94
2019-12-09 23:00:00 3.5 0 Calma 6 Este 0 943.2 0.6 92
2019-12-09 22:00:00 4.4 4 Este 6 Este 0 943.1 1.1 90
2019-12-09 21:00:00 5.5 4 Este 7 Este 0 942.8 1.3 86
2019-12-09 20:00:00 6.9 2 Oeste 9 Oeste 0 942.6 1.4 78
2019-12-09 19:00:00 8.2 5 Oeste 10 Oeste 0 942 0.9 73
2019-12-09 18:00:00 9.7 5 Oeste 18 Sudoeste 0 941.5 0.3 72
2019-12-09 17:00:00 10.7 9 Sudoeste 18 Oeste 0 941.2 0 68
2019-12-09 16:00:00 11.5 9 Oeste 19 Sudoeste 0 941.1 -0.7 66
2019-12-09 15:00:00 11.6 6 Sudoeste 19 Sudoeste 0 941.2 -1.4 66
2019-12-09 14:00:00 12.4 6 Oeste 16 Oeste 0 941.2 -1.4 60
2019-12-09 13:00:00 10.4 8 Oeste 17 Oeste 0 941.8 -0.5 69
2019-12-09 12:00:00 8.6 9 Oeste 17 Oeste 0 942.6 0.9 78
2019-12-09 11:00:00 7.2 4 Sudoeste 12 Sudoeste 0 942.6 1.2 87
2019-12-09 10:00:00 5.5 6 Sudoeste 15 Sudoeste 0 942.3 1.4 91
2019-12-09 09:00:00 5.7 8 Sudoeste 16 Sudoeste 0 941.7 1.7 92
2019-12-09 08:00:00 6.4 5 Oeste 17 Sudoeste 0 941.4 1.3 92
2019-12-09 07:00:00 6.8 5 Sudoeste 14 Oeste 0 940.9 0.5 93
2019-12-09 06:00:00 6.7 5 Sudoeste 13 Sudoeste 0 940 -0.3 91
2019-12-09 05:00:00 7.3 5 Sur 13 Sudoeste 0 940.1 -0.2 90
2019-12-09 04:00:00 7.9 2 Sudoeste 9 Sur 0 940.4 0.2 90
2019-12-09 03:00:00 8.5 3 Sudoeste 9 Sudoeste 0 940.3 0.6 89
2019-12-09 02:00:00 9 3 Oeste 9 Oeste 0 940.3 1.3 91
2019-12-09 01:00:00 9.5 0 Calma 14 Oeste 0 940.2 1.4 91
2019-12-09 00:00:00 10.1 4 Oeste 12 Oeste 0 939.7 1.1 92
2019-12-08 23:00:00 10.5 4 Sudoeste 16 Oeste 0 939 0.9 91
2019-12-08 22:00:00 10.8 9 Oeste 17 Oeste 0 938.8 1.6 95
2019-12-08 21:00:00 11.1 4 Oeste 17 Sudoeste 0 938.6 2.1 97
2019-12-08 20:00:00 10.9 5 Oeste 15 Sudoeste 0 938.1 1.3 98
2019-12-08 19:00:00 10.8 9 Sudoeste 19 Sudoeste 0 937.2 0.4 98
2019-12-08 18:00:00 10.8 8 Sudoeste 17 Sudoeste 0 936.5 -0.2 97
2019-12-08 17:00:00 11 6 Sudoeste 19 Sudoeste 0.5 936.8 -0.5 96
2019-12-08 16:00:00 11.1 6 Sudoeste 15 Sudoeste 0 936.8 -0.3 95
2019-12-08 15:00:00 10.8 5 Sudoeste 14 Oeste 0.9 936.7 -0.8 96
2019-12-08 14:00:00 10.5 10 Oeste 22 Oeste 0.7 937.3 -0.2 95
2019-12-08 13:00:00 11 9 Sudoeste 22 Sudoeste 0 937.1 -0.2 92
2019-12-08 12:00:00 10.4 11 Sudoeste 21 Sudoeste 0 937.5 0.3 94
2019-12-08 11:00:00 6.1 0 Calma 5 Este 0 937.5 0.2 96
2019-12-08 10:00:00 4.2 0 Calma 6 Este 0 937.3 0.5 97
2019-12-08 09:00:00 3 0 Calma 5 Sudeste 0 937.2 0.6 97
2019-12-08 08:00:00 2.2 0 Calma 7 Este 0 937.3 0.6 97
2019-12-08 07:00:00 1.3 3 Este 8 Este 0 936.8 0.1 97
2019-12-08 06:00:00 0.7 4 Este 6 Este 0 936.6 -0.6 97
2019-12-08 05:00:00 0.9 2 Este 5 Sudeste 0 936.7 -0.4 97
2019-12-08 04:00:00 1.1 0 Calma 5 Este 0 936.7 -0.6 96
2019-12-08 03:00:00 1.4 0 Calma 6 Este 0 937.2 -0.2 96
2019-12-08 02:00:00 1.9 0 Calma 4 Este 0 937.1 -0.3 95
2019-12-08 01:00:00 2.7 0 Calma 4 Este 0 937.3 0.3 95
2019-12-08 00:00:00 3.2 0 Calma 5 Este 0 937.4 0.5 93
2019-12-07 23:00:00 4 0 Calma 6 Este 0 937.4 1.1 93
2019-12-07 22:00:00 4.9 0 Calma 4 Este 0 937 1 92
2019-12-07 21:00:00 5.8 0 Calma 3 Este 0 936.9 1.2 90
2019-12-07 20:00:00 7.1 4 Este 6 Este 0 936.3 0.9 86
2019-12-07 19:00:00 8.5 3 Oeste 5 Oeste 0 936 0.9 79
2019-12-07 18:00:00 11.3 0 Calma 6 Sudoeste 0 935.7 0.4 67
2019-12-07 17:00:00 13.4 4 Sur 11 Oeste 0 935.4 -0.2 59
2019-12-07 16:00:00 14 4 Oeste 15 Oeste 0 935.1 -1.1 55
2019-12-07 15:00:00 13.4 9 Oeste 17 Oeste 0 935.3 -1.6 54
2019-12-07 14:00:00 12.3 3 Oeste 8 Norte 0 935.6 -1.1 62
2019-12-07 13:00:00 9.5 2 Sur 8 Sudeste 0 936.2 -0.2 78
2019-12-07 12:00:00 4.6 3 Este 9 Este 0 936.9 0.9 90
2019-12-07 11:00:00 2.5 4 Este 7 Este 0 936.7 0.8 98
2019-12-07 10:00:00 1.5 0 Calma 4 Este 0 936.4 0.9 99
2019-12-07 09:00:00 0.2 0 Calma 7 Este 0 936 1 99
2019-12-07 08:00:00 0.5 2 Este 5 Este 0 935.9 0.6 99
2019-12-07 07:00:00 0.7 0 Calma 9 Nordeste 0 935.5 -0.3 99
2019-12-07 06:00:00 1.3 4 Este 8 Este 0 935 -0.7 99
2019-12-07 05:00:00 1.7 0 Calma 8 Este 0 935.3 0 99
2019-12-07 04:00:00 1.6 4 Este 9 Este 0 935.8 0.2 98
2019-12-07 03:00:00 1.8 0 Calma 6 Este 0 935.7 0 98
2019-12-07 02:00:00 2.3 3 Este 6 Este 0 935.3 -0.2 98
2019-12-07 01:00:00 2.3 0 Calma 6 Este 0 935.6 0.4 96
2019-12-07 00:00:00 2.7 3 Este 6 Este 0 935.7 0.4 95
2019-12-06 23:00:00 3.5 0 Calma 4 Este 0 935.5 1 95
2019-12-06 22:00:00 4 0 Calma 5 Este 0 935.2 1.4 94
2019-12-06 21:00:00 4.9 0 Calma 5 Sudoeste 0 935.3 1.7 92
2019-12-06 20:00:00 5.9 0 Calma 7 Oeste 0 934.5 0.8 89
2019-12-06 19:00:00 7.2 0 Calma 4 Este 0 933.8 0.4 85
2019-12-06 18:00:00 9.1 0 Calma 6 Sudoeste 0 933.6 -0.3 77
2019-12-06 17:00:00 11.6 4 Sudoeste 7 Sur 0 933.7 -0.9 66
2019-12-06 16:00:00 12.2 3 Sur 8 Sudoeste 0 933.4 -1.6 66
2019-12-06 15:00:00 11 3 Sur 7 Sur 0 933.9 -1.7 70
2019-12-06 14:00:00 7.8 2 Sur 10 Sur 0 934.6 -1 85
2019-12-06 13:00:00 4.9 3 Sur 8 Sudoeste 0 935 -0.1 96
2019-12-06 12:00:00 3.1 0 Calma 9 Sudeste 0 935.6 0.6 99
2019-12-06 11:00:00 2.8 5 Este 10 Este 0 935.6 1.3 99
2019-12-06 10:00:00 2 2 Este 11 Este 0 935.1 1 99
2019-12-06 09:00:00 1.7 3 Oeste 6 Sudoeste 0 935 1.5 99
2019-12-06 08:00:00 1.4 0 Calma 7 Sudeste 0 934.3 0.6 98
2019-12-06 07:00:00 1.4 4 Este 7 Este 0 934.1 0.5 97
2019-12-06 06:00:00 1.6 2 Este 6 Este 0 933.5 0.2 95
2019-12-06 05:00:00 2.1 0 Calma 6 Este 0 933.7 0.1 94
2019-12-06 04:00:00 2.7 3 Este 6 Este 0 933.6 -0.1 93
2019-12-06 03:00:00 3.6 3 Este 11 Nordeste 0 933.3 -0.5 90
2019-12-06 02:00:00 3.9 5 Este 11 Noroeste 0 933.6 0.9 89
2019-12-06 01:00:00 4.8 2 Norte 10 Norte 0 933.7 0.6 88
2019-12-06 00:00:00 4.7 0 Calma 10 Este 0 933.8 0.6 85
2019-12-05 23:00:00 5.8 5 Este 13 Este 0 932.7 0 82
2019-12-05 22:00:00 7 5 Este 19 Nordeste 0 933.1 1.2 76
2019-12-05 21:00:00 8.3 9 Nordeste 31 Nordeste 0 933.2 1.8 72
2019-12-05 20:00:00 8.7 8 Nordeste 22 Nordeste 0 932.7 1.6 74
2019-12-05 19:00:00 9 5 Nordeste 20 Nordeste 0 931.9 1.1 73
2019-12-05 18:00:00 9.3 10 Nordeste 19 Nordeste 0 931.4 0.6 74
2019-12-05 17:00:00 9.9 4 Nordeste 20 Nordeste 0 931.1 0.4 71
2019-12-05 16:00:00 9.7 7 Este 18 Este 0 930.8 -0.2 71
2019-12-05 15:00:00 9.3 8 Nordeste 22 Nordeste 0 930.8 -0.7 72
2019-12-05 14:00:00 8.9 7 Nordeste 24 Nordeste 0 930.7 -0.6 72
2019-12-05 13:00:00 8.7 8 Nordeste 22 Nordeste 0 931 0.3 75
2019-12-05 12:00:00 7.1 10 Nordeste 23 Nordeste 0 931.5 1.7 81
2019-12-05 11:00:00 6.7 8 Nordeste 27 Nordeste 0 931.3 2.1 82
2019-12-05 10:00:00 6.3 6 Nordeste 21 Este 0 930.7 2 86
2019-12-05 09:00:00 5.9 5 Nordeste 14 Este 0 929.8 1.4 87
2019-12-05 08:00:00 6 6 Nordeste 24 Nordeste 0 929.2 1.2 86
2019-12-05 07:00:00 6.3 6 Nordeste 18 Nordeste 0 928.7 0.6 86
2019-12-05 06:00:00 6 7 Nordeste 20 Nordeste 0 928.4 0.5 86
2019-12-05 05:00:00 5.4 4 Nordeste 14 Nordeste 0 928 0.4 85
2019-12-05 04:00:00 4.4 3 Nordeste 11 Este 0 928.1 0.9 88
2019-12-05 03:00:00 3.9 6 Este 23 Nordeste 0 927.9 1.7 86
2019-12-05 02:00:00 3.7 13 Nordeste 26 Este 0 927.6 2.1 82
2019-12-05 01:00:00 3.7 8 Nordeste 21 Norte 0 927.2 2.2 88
2019-12-05 00:00:00 2.4 0 Calma 8 Nordeste 0 926.2 1.5 95
2019-12-04 23:00:00 2.9 3 Este 5 Este 0 925.5 0.9 95
2019-12-04 22:00:00 3.5 2 Este 7 Este 0 925 1.1 94
2019-12-04 21:00:00 4.4 3 Este 5 Nordeste 0 924.7 1 93
2019-12-04 20:00:00 5.3 4 Este 9 Norte 0 924.6 1.3 90
2019-12-04 19:00:00 5.9 0 Calma 6 Nordeste 0 923.9 0.9 87
2019-12-04 18:00:00 6.9 4 Este 11 Este 0 923.7 0.6 83
2019-12-04 17:00:00 7.3 7 Nordeste 14 Nordeste 0 923.3 0.2 80
2019-12-04 16:00:00 7.3 6 Nordeste 18 Este 0 923 -0.7 78
2019-12-04 15:00:00 6.9 6 Nordeste 17 Nordeste 0 923.1 -1.3 77
2019-12-04 14:00:00 5.9 4 Nordeste 14 Este 0 923.1 -1.5 79
2019-12-04 13:00:00 4.6 4 Norte 16 Norte 0 923.7 -0.4 83
2019-12-04 12:00:00 3.2 5 Este 10 Sudeste 0 924.4 0.3 88
2019-12-04 11:00:00 1.5 4 Este 11 Este 0 924.6 1 94
2019-12-04 10:00:00 0.5 4 Este 14 Este 0 924.1 0.3 95
2019-12-04 09:00:00 0 2 Nordeste 10 Nordeste 0 924.1 0.3 95
2019-12-04 08:00:00 -0.6 0 Calma 7 Este 0 923.6 -0.7 95
2019-12-04 07:00:00 -0.3 0 Calma 12 Norte 0 923.8 -0.6 95
2019-12-04 06:00:00 -0.2 0 Calma 8 Noroeste 0 923.8 -0.9 95
2019-12-04 05:00:00 -0.2 3 Oeste 8 Sudoeste 0 924.3 -1.3 95
2019-12-04 04:00:00 0 0 Calma 3 Sudoeste 0 924.4 -1.5 94
2019-12-04 03:00:00 0.6 2 Este 13 Nordeste 0 924.7 -1.2 92
2019-12-04 02:00:00 0.9 0 Calma 14 Norte 0 925.6 -0.3 92
2019-12-04 01:00:00 0.8 3 Nordeste 8 Nordeste 0 925.9 -0.1 92
2019-12-04 00:00:00 1.2 0 Calma 8 Nordeste 0 925.9 -0.2 91
2019-12-03 23:00:00 1.4 0 Calma 9 Nordeste 0 925.9 0.1 90
2019-12-03 22:00:00 1.8 0 Calma 4 Sur 0 926 0.4 90
2019-12-03 21:00:00 2.3 2 Este 4 Nordeste 0 926.1 0.7 88
2019-12-03 20:00:00 2.7 0 Calma 5 Nordeste 0 925.8 0.3 85
2019-12-03 19:00:00 3.8 2 Sudeste 6 Este 0 925.6 -0.2 78
2019-12-03 18:00:00 5.4 3 Este 15 Este 0 925.4 -0.6 69
2019-12-03 17:00:00 7.2 8 Este 18 Sudeste 0 925.5 -1.5 61
2019-12-03 16:00:00 7.8 8 Este 19 Nordeste 0 925.8 -2 60
2019-12-03 15:00:00 7.3 6 Este 19 Norte 0 926 -2.9 61
2019-12-03 14:00:00 6.6 6 Nordeste 23 Este 0 927 -2.1 65
2019-12-03 13:00:00 5.1 8 Este 19 Nordeste 0 927.8 -1.6 76
2019-12-03 12:00:00 3.3 7 Nordeste 23 Este 0 928.9 -0.2 83
2019-12-03 11:00:00 2.3 5 Nordeste 17 Nordeste 0 929.1 -0.4 86
2019-12-03 10:00:00 1.4 9 Nordeste 17 Nordeste 0 929.4 -0.3 90
2019-12-03 09:00:00 0.5 7 Nordeste 14 Este 0 929.1 -0.4 91
2019-12-03 08:00:00 0.5 4 Nordeste 15 Nordeste 0 929.5 -0.4 91
2019-12-03 07:00:00 0.7 6 Nordeste 15 Nordeste 0 929.7 -0.6 91
2019-12-03 06:00:00 0.5 5 Nordeste 13 Este 0 929.5 -1.1 90
2019-12-03 05:00:00 0.4 3 Este 15 Nordeste 0 929.9 -1 89
2019-12-03 04:00:00 1 4 Este 14 Nordeste 0 930.3 -1.1 86
2019-12-03 03:00:00 1.2 4 Nordeste 12 Nordeste 0 930.6 -1 86
2019-12-03 02:00:00 1.4 7 Nordeste 18 Nordeste 0 930.9 -0.6 85
2019-12-03 01:00:00 1.9 7 Nordeste 15 Nordeste 0 931.4 0.2 83
2019-12-03 00:00:00 2.4 6 Este 16 Este 0 931.6 0.6 82
2019-12-02 23:00:00 3.1 6 Nordeste 15 Este 0 931.5 1.2 81
2019-12-02 22:00:00 3.8 9 Nordeste 22 Nordeste 0 931.2 1.3 79
2019-12-02 21:00:00 4.5 9 Este 24 Nordeste 0 931 1.7 81
2019-12-02 20:00:00 5.6 9 Nordeste 26 Este 0 930.3 1.7 79
2019-12-02 19:00:00 6.4 8 Nordeste 21 Nordeste 0 929.9 1.4 77
2019-12-02 18:00:00 7.6 8 Nordeste 40 Nordeste 0 929.3 0.8 71
2019-12-02 17:00:00 9.2 11 Nordeste 37 Nordeste 0 928.6 0 65
2019-12-02 16:00:00 9.1 14 Nordeste 42 Nordeste 0 928.5 -0.4 61
2019-12-02 15:00:00 9.6 11 Nordeste 39 Norte 0 928.5 -0.8 62
2019-12-02 14:00:00 9 18 Nordeste 46 Nordeste 0 928.6 -0.4 65
2019-12-02 13:00:00 9.1 16 Nordeste 48 Nordeste 0 928.9 0.1 66
2019-12-02 12:00:00 8.7 14 Nordeste 39 Nordeste 0 929.3 0.8 70
2019-12-02 11:00:00 7.2 12 Nordeste 32 Nordeste 0 929 1.4 80
2019-12-02 10:00:00 5.9 10 Nordeste 30 Nordeste 0 928.8 1.5 86
2019-12-02 09:00:00 4.6 10 Nordeste 32 Norte 0 928.5 1.6 88
2019-12-02 08:00:00 4.2 12 Nordeste 29 Nordeste 0 927.6 0.9 89
2019-12-02 07:00:00 4.3 10 Nordeste 28 Este 0 927.3 0.6 89
2019-12-02 06:00:00 4.4 12 Nordeste 33 Nordeste 0 926.9 0.9 88
2019-12-02 05:00:00 4.6 16 Nordeste 36 Nordeste 0 926.7 1.1 87
2019-12-02 04:00:00 5 15 Nordeste 30 Nordeste 0 926.7 1.3 86
2019-12-02 03:00:00 5.7 11 Nordeste 35 Nordeste 0 926 0.6 86
2019-12-02 02:00:00 5.9 9 Nordeste 33 Nordeste 0 925.6 0.6 87
2019-12-02 01:00:00 6 9 Nordeste 23 Nordeste 0 925.4 0.5 87
2019-12-02 00:00:00 6.3 9 Nordeste 29 Nordeste 0 925.4 0.7 86
2019-12-01 23:00:00 7.2 7 Nordeste 22 Nordeste 0 925 0.7 87
2019-12-01 22:00:00 7.2 5 Nordeste 20 Nordeste 0 924.9 1.2 90
2019-12-01 21:00:00 7.1 8 Nordeste 29 Nordeste 0 924.7 1.8 87
2019-12-01 20:00:00 7.5 11 Nordeste 30 Nordeste 0 924.3 1.8 88
2019-12-01 19:00:00 8.2 8 Nordeste 22 Norte 0 923.7 1.6 86
2019-12-01 18:00:00 8.7 8 Nordeste 22 Nordeste 0 922.9 0.9 83
2019-12-01 17:00:00 9.1 8 Nordeste 22 Nordeste 0 922.5 0.5 82
2019-12-01 16:00:00 9 6 Nordeste 17 Nordeste 1.5 922.1 -0.2 86
2019-12-01 15:00:00 9.7 6 Nordeste 20 Nordeste 0.4 922 -0.8 78
2019-12-01 14:00:00 10.9 4 Este 11 Este 0 922 -0.7 74
2019-12-01 13:00:00 9.9 0 Calma 8 Sur 0 922.3 0.2 78
2019-12-01 12:00:00 9.7 4 Sur 9 Sur 0 922.8 1 79
2019-12-01 11:00:00 8.1 3 Sur 7 Sur 0 922.7 1.1 87
2019-12-01 10:00:00 7.2 3 Sudeste 9 Sur 0 922.1 0.5 90
2019-12-01 09:00:00 7.2 0 Calma 13 Sur 0 921.8 0 94
2019-12-01 08:00:00 7 6 Sur 29 Sudoeste 2 921.6 -1 94
2019-12-01 07:00:00 7.1 6 Sur 17 Sur 0.4 921.6 -1.9 92
2019-12-01 06:00:00 6.7 6 Sur 19 Sur 0.1 921.8 -2.3 90
2019-12-01 05:00:00 6.4 7 Sur 20 Sur 0.2 922.6 -2.2 90
2019-12-01 04:00:00 6.5 10 Sur 22 Sur 0 923.5 -2.3 85
2019-12-01 03:00:00 5.8 6 Sur 15 Sudoeste 0 924.1 -2.4 86
2019-12-01 02:00:00 5.4 7 Sur 15 Sur 0 924.8 -2 88
2019-12-01 01:00:00 5.5 6 Sur 18 Sudoeste 0 925.8 -1.3 90
2019-12-01 00:00:00 5.8 5 Sur 18 Sur 0 926.5 -0.8 91
2019-11-30 23:00:00 6 6 Sur 17 Sur 0 926.8 -0.6 92
2019-11-30 22:00:00 6.6 5 Sudoeste 15 Sur 0 927.1 -0.3 92
2019-11-30 21:00:00 7.2 8 Sur 14 Sur 0 927.3 -0.1 94
2019-11-30 20:00:00 8 5 Sur 20 Oeste 0 927.4 0.2 91
2019-11-30 19:00:00 8.9 9 Sudoeste 23 Sudoeste 0.1 927.4 0.1 91
2019-11-30 18:00:00 8.8 8 Oeste 31 Sudoeste 0.6 927.4 0.4 90
2019-11-30 17:00:00 9.5 13 Oeste 45 Noroeste 0 927.2 0 81
2019-11-30 16:00:00 10 15 Oeste 33 Oeste 0.8 927.3 -0.6 93
2019-11-30 15:00:00 10.6 19 Oeste 36 Oeste 3.8 927 -1.8 94
2019-11-30 14:00:00 12.2 16 Sur 31 Sudoeste 2.5 927.2 -1.7 93
2019-11-30 13:00:00 12.4 19 Sur 40 Sur 0.4 927.9 -1.3 90
2019-11-30 12:00:00 12.6 16 Sur 47 Sudoeste 0 928.8 -0.7 86
2019-11-30 11:00:00 12.9 18 Sur 40 Sur 0 928.9 -0.6 85
2019-11-30 10:00:00 12.5 15 Sur 35 Sur 0 929.2 -0.5 86
2019-11-30 09:00:00 12.1 13 Sur 27 Sur 0 929.5 -0.6 89
2019-11-30 08:00:00 12.2 12 Sur 26 Sur 0 929.5 -0.9 89
2019-11-30 07:00:00 12.1 15 Sur 28 Sur 0 929.7 -1.5 90
2019-11-30 06:00:00 11.9 10 Sur 20 Sudoeste 0 930.1 -1.4 90
2019-11-30 05:00:00 11.9 5 Sur 13 Sur 0 930.4 -1 90
2019-11-30 04:00:00 12.5 8 Sur 23 Sudoeste 0 931.2 -0.4 89
2019-11-30 03:00:00 12.6 8 Sudoeste 23 Sur 0 931.5 -0.6 89
2019-11-30 02:00:00 12.6 8 Sudoeste 19 Sudoeste 0 931.4 -0.7 92
2019-11-30 01:00:00 12.6 6 Sur 18 Sudoeste 0 931.6 -0.5 91
2019-11-30 00:00:00 12.9 10 Sudoeste 22 Sudoeste 0 932.1 0.2 89
2019-11-29 23:00:00 12.9 9 Sudoeste 21 Sudoeste 0 932.1 0.2 90
2019-11-29 22:00:00 13 11 Sudoeste 22 Sudoeste 0 932.1 0.8 91
2019-11-29 21:00:00 12.6 5 Sur 9 Sur 0 931.9 0.3 91
2019-11-29 20:00:00 12.6 3 Sur 11 Sur 0 931.9 0.4 89
2019-11-29 19:00:00 13 6 Sur 13 Sudoeste 0 931.3 -0.2 87
2019-11-29 18:00:00 13.8 4 Sudoeste 11 Sudoeste 0 931.6 0 82
2019-11-29 17:00:00 14.2 6 Sudoeste 17 Sudoeste 0 931.5 -0.4 83
2019-11-29 16:00:00 14.2 9 Sudoeste 23 Sudoeste 0 931.5 -0.8 83
2019-11-29 15:00:00 14.3 9 Sudoeste 21 Sur 0 931.6 -1.2 86
2019-11-29 14:00:00 13.6 9 Sudoeste 26 Sudoeste 0.2 931.9 -0.7 91
2019-11-29 13:00:00 13.4 9 Sur 25 Sudoeste 0.4 932.3 0.3 93
2019-11-29 12:00:00 13.2 8 Sudoeste 17 Sudoeste 0 932.8 1.6 95
2019-11-29 11:00:00 12.6 9 Sudoeste 19 Oeste 0.7 932.6 2.3 97
2019-11-29 10:00:00 12.3 4 Sudoeste 15 Sudoeste 0.2 932 2 96
2019-11-29 09:00:00 11.9 6 Sudoeste 21 Sur 0 931.2 1.8 95
2019-11-29 08:00:00 12 8 Sudoeste 33 Sudoeste 0.6 930.3 0.7 94
2019-11-29 07:00:00 12.2 5 Sudoeste 19 Sur 0 930 0.6 94
2019-11-29 06:00:00 12.3 6 Sur 19 Sur 0 929.4 0.6 94
2019-11-29 05:00:00 12.1 7 Sudoeste 22 Sudoeste 0 929.6 1 94
2019-11-29 04:00:00 12.2 11 Sudoeste 32 Sur 0 929.4 0.7 91
2019-11-29 03:00:00 12.3 15 Sur 28 Sudoeste 0 928.8 0.5 89
2019-11-29 02:00:00 12.1 7 Sudoeste 18 Sur 0 928.6 0.5 88
2019-11-29 01:00:00 12.3 9 Sudoeste 32 Sudoeste 0 928.7 1.1 83
2019-11-29 00:00:00 12.9 14 Sudoeste 43 Sur 0 928.3 1.1 77
2019-11-28 23:00:00 13 18 Sur 37 Sur 0 928.1 1 75
2019-11-28 22:00:00 12.9 21 Sudoeste 41 Sudoeste 0 927.6 0.7 74
2019-11-28 21:00:00 11.6 10 Sur 36 Sudoeste 0 927.2 0.5 80
2019-11-28 20:00:00 12.3 15 Sudoeste 34 Sudoeste 0 927.1 0.6 74
2019-11-28 19:00:00 11.6 10 Sudoeste 26 Sur 0 926.9 0.6 79
2019-11-28 18:00:00 12.5 14 Sur 41 Sudoeste 0 926.7 0.1 70
2019-11-28 17:00:00 13.1 21 Sudoeste 40 Sudoeste 0 926.5 -0.8 64
2019-11-28 16:00:00 13.2 13 Sur 41 Sudoeste 0 926.3 -1.1 71
2019-11-28 15:00:00 13.7 18 Sudoeste 46 Sur 0 926.6 -1.7 66
2019-11-28 14:00:00 13.6 17 Sudoeste 41 Sudoeste 0 927.3 -1.4 64
2019-11-28 13:00:00 13.5 19 Sur 36 Sur 0 927.4 -0.7 65
2019-11-28 12:00:00 12 13 Sur 27 Sur 0 928.3 0.4 80
2019-11-28 11:00:00 10.6 11 Sur 30 Sur 0 928.7 1.5 89
2019-11-28 10:00:00 10.4 12 Sur 32 Sur 0 928.1 1.1 86
2019-11-28 09:00:00 9.7 11 Sur 23 Sudoeste 0 927.9 1.3 90
2019-11-28 08:00:00 9.3 11 Sur 24 Sur 0 927.2 0.8 89
2019-11-28 07:00:00 9.5 15 Sur 26 Sur 0 927 0.1 90
2019-11-28 06:00:00 8.9 8 Sur 21 Sur 0 926.6 0 88
2019-11-28 05:00:00 9 9 Sur 26 Sur 0 926.4 -0.2 87
2019-11-28 04:00:00 9.4 13 Sudoeste 23 Sudoeste 0 926.9 0.2 86
2019-11-28 03:00:00 9.4 14 Sudoeste 39 Sudoeste 0 926.6 0 86
2019-11-28 02:00:00 10.1 14 Sudoeste 32 Sudoeste 0 926.6 0 79
2019-11-28 01:00:00 9.4 12 Sur 29 Sur 0 926.7 0.6 81
2019-11-28 00:00:00 9.7 13 Sudoeste 25 Sudoeste 0 926.6 0.8 82
2019-11-27 23:00:00 9.7 9 Sudoeste 30 Sudoeste 0 926.6 0.9 83
2019-11-27 22:00:00 9.9 12 Sudoeste 39 Sudoeste 0 926.1 0.7 84
2019-11-27 21:00:00 10.2 14 Sudoeste 32 Sudoeste 0 925.8 1.1 82
2019-11-27 20:00:00 10.5 9 Sudoeste 22 Sur 0 925.7 1.3 79
2019-11-27 19:00:00 10.6 10 Sudoeste 30 Sudoeste 0 925.4 1.4 74
2019-11-27 18:00:00 10.9 13 Sudoeste 34 Sudoeste 0 924.7 0.4 68
2019-11-27 17:00:00 11.8 14 Sudoeste 39 Sudoeste 0 924.4 0 66
2019-11-27 16:00:00 12.3 20 Sudoeste 40 Sudoeste 0 924 -1.2 63
2019-11-27 15:00:00 12.3 20 Sudoeste 44 Sudoeste 0 924.3 -1.6 62
2019-11-27 14:00:00 12.7 13 Sudoeste 42 Sudoeste 0 924.4 -1.3 64
2019-11-27 06:00:00 7.9 10 Sudoeste 25 Sur 0 923.3 0.9 83
2019-11-27 05:00:00 8.3 11 Sudoeste 32 Sudoeste 0 923 1.1 83
2019-11-27 04:00:00 8.5 15 Sudoeste 40 Oeste 0 922.6 0.3 82
2019-11-27 03:00:00 8.6 17 Sudoeste 43 Sudoeste 0 922.4 0.6 83
2019-11-27 02:00:00 9.2 20 Sudoeste 44 Sudoeste 0 921.9 0.1 86
2019-11-27 01:00:00 9.9 11 Sudoeste 38 Sudoeste 0 922.3 1.3 90
2019-11-27 00:00:00 10.4 15 Sudoeste 40 Sudoeste 0 921.8 1.9 90
2019-11-26 23:00:00 10.7 19 Sudoeste 50 Sudoeste 0.6 921.8 1.8 90
2019-11-26 22:00:00 11.3 18 Sudoeste 54 Sudoeste 2.3 921 1.4 87
2019-11-26 21:00:00 13.5 25 Sudoeste 51 Sudoeste 0 919.9 0.4 61
2019-11-26 20:00:00 13.4 22 Sudoeste 49 Sudoeste 0 920 0.4 62
2019-11-26 19:00:00 13.8 24 Sudoeste 49 Sudoeste 0 919.6 -0.1 73
2019-11-26 18:00:00 14.4 21 Sudoeste 47 Sudoeste 0 919.5 -0.9 78
2019-11-26 17:00:00 14.3 19 Sur 43 Sudoeste 0 919.6 -1.8 80
2019-11-26 16:00:00 15.6 19 Sur 48 Sur 0 919.7 -2.4 74
2019-11-26 15:00:00 15.1 22 Sur 44 Sur 0 920.4 -3.1 75
2019-11-26 14:00:00 15.9 21 Sur 59 Sudeste 0.1 921.4 -2.6 71
2019-11-26 13:00:00 15.1 19 Sur 48 Sudoeste 0 922.1 -2.2 76
2019-11-26 12:00:00 14.4 20 Sur 43 Sur 0 923.5 -1 78
2019-11-26 11:00:00 13.6 20 Sur 43 Sur 0 924 -0.5 84
2019-11-26 10:00:00 12.4 14 Sur 27 Sur 0 924.3 -0.3 90
2019-11-26 09:00:00 11.9 15 Sur 34 Sur 0.1 924.5 -0.6 90
2019-11-26 08:00:00 11 10 Sur 29 Sur 0 924.5 -1 90
2019-11-26 07:00:00 11.1 8 Sur 28 Sur 0 924.6 -1.8 91
2019-11-26 06:00:00 10.9 12 Sur 28 Sur 0 925.1 -1.3 92
2019-11-26 05:00:00 11 8 Sur 26 Sur 0 925.5 -1.5 90
2019-11-26 04:00:00 11.1 11 Sur 22 Sudeste 0 926.4 -1.2 88
2019-11-26 03:00:00 9.3 0 Calma 6 Este 0 926.4 -1.7 94
2019-11-26 02:00:00 9.3 0 Calma 8 Sur 0 927 -1.3 91
2019-11-26 01:00:00 9.8 3 Sur 14 Sudeste 0 927.6 -0.4 89
2019-11-26 00:00:00 10 6 Sur 14 Sur 0 928.1 -0.2 86
2019-11-25 23:00:00 10.6 4 Oeste 14 Sur 0 928.3 -0.2 86
2019-11-25 22:00:00 11 8 Sur 18 Sur 0 928 -0.1 86
2019-11-25 21:00:00 10.9 8 Sur 19 Sur 0 928.3 0.8 86
2019-11-25 20:00:00 10.9 7 Sur 14 Sudoeste 0 928.5 1.1 85
2019-11-25 19:00:00 11.1 6 Sudoeste 15 Sudoeste 0 928.1 1.1 82
2019-11-25 18:00:00 12 6 Sudoeste 30 Sudoeste 0 927.5 0.6 77
2019-11-25 17:00:00 12.8 12 Sudoeste 33 Sudoeste 0 927.4 0.4 72
2019-11-25 16:00:00 13.6 10 Oeste 30 Sudoeste 0 927 -0.4 71
2019-11-25 15:00:00 14.1 11 Sudoeste 35 Sudoeste 0 926.9 -0.6 69
2019-11-25 14:00:00 14 15 Sudoeste 31 Sudoeste 0 927 -0.3 70
2019-11-25 13:00:00 13.5 18 Sudoeste 38 Sudoeste 0 927.4 0.9 74
2019-11-25 12:00:00 13.6 16 Sudoeste 33 Sudoeste 0 927.5 1.1 76
2019-11-25 11:00:00 13.1 15 Sudoeste 32 Sudoeste 0 927.3 1.4 78
2019-11-25 10:00:00 11.4 12 Sudoeste 19 Sudoeste 0 926.5 0.7 84
2019-11-25 09:00:00 10.1 6 Sur 14 Sur 0 926.4 0.9 90
2019-11-25 08:00:00 10.1 7 Sudoeste 30 Sur 0.1 925.9 0.6 91
2019-11-25 07:00:00 10.6 9 Sur 22 Sudoeste 0 925.8 0.4 91
2019-11-25 06:00:00 11.1 12 Sudoeste 27 Sur 0 925.5 0.7 91
2019-11-25 05:00:00 11.2 13 Sudoeste 30 Sudoeste 0 925.3 0.7 93
2019-11-25 04:00:00 11.2 13 Sudoeste 38 Sudoeste 0.5 925.4 1.1 95
2019-11-25 03:00:00 10.9 17 Sudoeste 38 Sudoeste 0.3 924.8 0.6 95
2019-11-25 02:00:00 10.4 9 Sudoeste 28 Sudoeste 0.4 924.6 -0.1 95
2019-11-25 01:00:00 9.9 11 Sur 37 Sur 0.2 924.3 -0.6 93
2019-11-25 00:00:00 9.8 17 Sur 36 Sudeste 0.1 924.2 -1 90
2019-11-24 23:00:00 9.5 17 Sur 41 Sur 0 924.7 -0.7 90
2019-11-24 22:00:00 9.2 12 Sur 34 Sur 0 924.9 -1.3 90
2019-11-24 21:00:00 8.8 13 Sur 28 Sur 0 925.2 -0.9 90
2019-11-24 20:00:00 8.7 6 Sur 23 Sur 0 925.4 -0.9 83
2019-11-24 19:00:00 9.1 9 Sur 22 Sur 0 926.2 0 77
2019-11-24 18:00:00 9.7 9 Sur 26 Sudoeste 0 926.1 -0.4 73
2019-11-24 17:00:00 10.5 8 Sur 28 Sur 0 926.3 -0.9 68
2019-11-24 16:00:00 10.3 10 Sur 29 Sudoeste 0 926.2 -1.8 69
2019-11-24 15:00:00 9.9 11 Sudoeste 26 Sudoeste 0 926.5 -2 70
2019-11-24 14:00:00 9.6 12 Oeste 29 Sudoeste 0 927.2 -1.3 69
2019-11-24 13:00:00 9.2 12 Sudoeste 26 Sudoeste 0 928 0 70
2019-11-24 12:00:00 8.2 10 Sudoeste 23 Sur 0 928.5 1 75
2019-11-24 11:00:00 7.2 6 Sur 17 Sur 0 928.5 1.3 83
2019-11-24 10:00:00 5.7 4 Sur 16 Sudoeste 0 928 0.8 90
2019-11-24 09:00:00 4.4 2 Sudoeste 11 Sudoeste 0 927.5 0.8 94
2019-11-24 08:00:00 4.4 0 Calma 13 Sudoeste 0 927.2 0.8 95
2019-11-24 07:00:00 4.6 6 Sudoeste 20 Sudoeste 0 927.2 1 95
2019-11-24 06:00:00 4.7 6 Sudoeste 18 Sudoeste 0 926.7 1 96
2019-11-24 05:00:00 4.2 7 Sudoeste 18 Sudoeste 0 926.4 1 94
2019-11-24 04:00:00 4.9 7 Sudoeste 23 Sudoeste 0 926.2 0.7 93
2019-11-24 03:00:00 5 9 Oeste 23 Sudoeste 0 925.7 0.4 92
2019-11-24 02:00:00 5.2 9 Oeste 25 Sudoeste 0 925.4 0.4 91
2019-11-24 01:00:00 5.6 6 Oeste 23 Oeste 0 925.5 0.9 88
2019-11-24 00:00:00 5.7 7 Oeste 22 Sudoeste 0 925.3 1.3 87
2019-11-23 23:00:00 5.6 7 Sudoeste 20 Sudoeste 0 925 2 84
2019-11-23 22:00:00 6.4 9 Sudoeste 19 Sur 0 924.6 2 79
2019-11-23 21:00:00 6.8 8 Sudoeste 28 Sudoeste 0 924 2.4 76
2019-11-23 20:00:00 7.4 10 Oeste 22 Oeste 0 923 2.3 74
2019-11-23 19:00:00 7.5 6 Sur 19 Oeste 0 922.6 2.6 69
2019-11-23 18:00:00 8.8 12 Oeste 23 Oeste 0 921.6 2.4 61
2019-11-23 17:00:00 9.8 13 Oeste 34 Oeste 0 920.7 1.5 57
2019-11-23 16:00:00 10.7 16 Oeste 39 Oeste 0 920 1.1 54
2019-11-23 15:00:00 10.1 18 Oeste 37 Oeste 0 919.2 0.8 59
2019-11-23 14:00:00 10.2 18 Oeste 42 Sudoeste 0 919.2 1.3 61
2019-11-23 13:00:00 9.6 18 Oeste 40 Sudoeste 0 918.9 2.3 63
2019-11-23 12:00:00 9.3 19 Oeste 40 Oeste 0 918.4 2.9 67
2019-11-23 11:00:00 8.5 12 Sudoeste 35 Sudoeste 0 917.9 3.6 73
2019-11-23 10:00:00 6.7 13 Oeste 35 Sudoeste 0 916.6 3.9 79
2019-11-23 09:00:00 4.9 13 Sudoeste 32 Oeste 0 915.5 3.7 87
2019-11-23 08:00:00 5 8 Oeste 33 Oeste 0 914.3 3.7 84
2019-11-23 07:00:00 5 8 Sudoeste 28 Sudoeste 0 912.7 3.1 82
2019-11-23 06:00:00 5.4 14 Sudoeste 40 Sudoeste 0 911.8 3.1 82
2019-11-23 05:00:00 5.8 16 Sudoeste 37 Sudoeste 0 910.6 2.6 81
2019-11-23 04:00:00 6.1 18 Oeste 42 Sudoeste 0 909.6 2.2 82
2019-11-23 03:00:00 6.1 17 Oeste 48 Sudoeste 0 908.7 1.9 85
2019-11-23 02:00:00 6.3 18 Sudoeste 53 Sudoeste 0 908 1.7 84
2019-11-23 01:00:00 6.8 17 Sudoeste 47 Sudoeste 0 907.4 1.5 85
2019-11-23 00:00:00 7.1 18 Sudoeste 59 Sudoeste 0.1 906.8 1.5 83
2019-11-22 23:00:00 8.1 21 Sudoeste 49 Sudoeste 0 906.3 1.2 85
2019-11-22 22:00:00 8.5 22 Sudoeste 47 Sudoeste 0.8 905.9 0.9 86
2019-11-22 21:00:00 9 21 Sur 48 Sudoeste 0 905.3 0.6 79
2019-11-22 20:00:00 9.2 18 Sudoeste 52 Sudoeste 0 905.1 1.1 78
2019-11-22 19:00:00 8.8 18 Sudoeste 42 Sudoeste 0 905 1.3 84
2019-11-22 18:00:00 9.1 14 Sudoeste 42 Sudoeste 1.2 904.7 1.6 85
2019-11-22 17:00:00 10.3 18 Sudoeste 48 Sur 0 904 0.6 74
2019-11-22 16:00:00 11.9 28 Sudoeste 60 Sudoeste 0 903.7 -0.6 74
2019-11-22 15:00:00 12.8 19 Sudoeste 47 Sudoeste 2.2 903.1 -1.8 86
2019-11-22 14:00:00 13.3 20 Sur 51 Sudoeste 0 903.4 -2.3 77
2019-11-22 13:00:00 12.6 22 Sur 54 Sur 0 904.3 -2.5 82
2019-11-22 12:00:00 11.2 24 Sur 57 Sur 0.9 904.9 -3.1 87
2019-11-22 11:00:00 11.4 25 Sur 60 Sudeste 0 905.7 -4.1 82
2019-11-22 10:00:00 11.1 24 Sur 55 Sur 0 906.8 -4.4 83
2019-11-22 09:00:00 9.6 19 Sur 44 Sur 0 908 -4.4 88
2019-11-22 08:00:00 8.6 17 Sur 38 Sur 0.3 909.8 -3.7 89
2019-11-22 07:00:00 8.1 14 Sur 33 Sur 1 911.2 -3.1 89
2019-11-22 06:00:00 8.1 13 Sur 35 Sudoeste 0.6 912.4 -2.9 89
2019-11-22 05:00:00 8.6 18 Sur 32 Sur 0 913.5 -2.6 83
2019-11-22 04:00:00 8.8 11 Sur 27 Sudoeste 0 914.3 -2.6 84
2019-11-22 03:00:00 8.4 6 Sur 18 Sudoeste 0 915.3 -1.8 87
2019-11-22 02:00:00 8.2 9 Sur 19 Sur 0 916.1 -2 86
2019-11-22 01:00:00 8 8 Sur 18 Sur 0 916.9 -1.4 88
2019-11-22 00:00:00 7.9 6 Sur 18 Sur 0 917.1 -1.3 91
2019-11-21 23:00:00 7.6 5 Sur 10 Sur 0 918.1 -0.3 91
2019-11-21 22:00:00 7.3 2 Sudeste 7 Sudeste 0 918.3 0.1 89
2019-11-21 21:00:00 7.7 0 Calma 14 Sudoeste 0.1 918.4 0.3 84
2019-11-21 20:00:00 7.6 6 Sur 12 Sudoeste 0 918.4 0.5 80
2019-11-21 19:00:00 7.6 6 Sur 14 Sur 0 918.2 0.3 77
2019-11-21 18:00:00 9 6 Sur 20 Sudoeste 0 918.1 -0.3 69
2019-11-21 17:00:00 11.1 11 Sudoeste 22 Sudoeste 0 917.9 -0.5 63
2019-11-21 16:00:00 11.1 5 Oeste 22 Oeste 0 917.9 -0.7 63
2019-11-21 15:00:00 9.5 10 Oeste 31 Oeste 0 918.4 -1.1 70
2019-11-21 14:00:00 10.3 12 Sudoeste 30 Sur 0 918.4 -0.8 69
2019-11-21 13:00:00 9.2 8 Sudoeste 17 Oeste 0.2 918.6 -0.3 82
2019-11-21 12:00:00 7.5 8 Sudoeste 27 Sudoeste 1 919.5 0.7 89
2019-11-21 11:00:00 9 9 Sudoeste 26 Sudoeste 0 919.2 1.1 86
2019-11-21 10:00:00 7.4 6 Sudoeste 15 Sudoeste 0 918.9 0.8 93
2019-11-21 09:00:00 6.6 3 Sudoeste 15 Sudoeste 0 918.8 0.6 92
2019-11-21 08:00:00 6.4 6 Sur 20 Sur 0 918.1 -0.3 93
2019-11-21 07:00:00 6.3 9 Sur 17 Sudoeste 0.1 918.1 -0.6 93
2019-11-21 06:00:00 6 6 Sur 19 Sudoeste 0.3 918.2 -0.5 94
2019-11-21 05:00:00 5.9 6 Sur 21 Sur 0.1 918.4 -0.5 90
2019-11-21 04:00:00 5.5 5 Sur 15 Sudoeste 0 918.7 -0.5 91
2019-11-21 03:00:00 5.1 4 Sudeste 11 Sur 0 918.7 -0.3 91
2019-11-21 02:00:00 5.9 5 Sur 13 Sudoeste 0 918.9 -0.3 90
2019-11-21 01:00:00 5.2 4 Sudeste 16 Sur 0 919.2 0.1 91
2019-11-21 00:00:00 4.8 8 Sur 16 Sur 0 919 0 91
2019-11-20 23:00:00 5 6 Sur 23 Sudoeste 0 919.2 0.3 91
2019-11-20 22:00:00 5.2 8 Sur 25 Sur 0 919.1 0.4 91
2019-11-20 21:00:00 5.5 8 Sur 18 Sur 0 919 0.7 90
2019-11-20 20:00:00 5.8 8 Sur 18 Sur 0 918.9 0.4 89
2019-11-20 19:00:00 6 3 Sur 19 Sudoeste 0 918.7 0.2 86
2019-11-20 18:00:00 7 6 Sudoeste 22 Sudoeste 0 918.3 -0.3 82
2019-11-20 17:00:00 7.9 6 Sudoeste 27 Sur 0 918.5 -0.7 81
2019-11-20 16:00:00 8.6 11 Sudoeste 27 Sur 0 918.5 -1.3 78
2019-11-20 15:00:00 7.4 13 Sur 28 Sur 0 918.6 -1.8 81
2019-11-20 14:00:00 7.1 12 Sur 37 Sur 0 919.2 -1.7 82
2019-11-20 13:00:00 7.1 12 Sur 24 Sur 0.1 919.8 -1.4 84
2019-11-20 12:00:00 6.3 9 Sur 27 Sur 0.4 920.4 -0.9 90
2019-11-20 11:00:00 5.7 8 Sur 22 Sur 1.1 920.9 -0.3 90
2019-11-20 10:00:00 5.7 6 Sur 17 Sur 0.8 921.2 0 91
2019-11-20 09:00:00 5.3 8 Sur 19 Sur 1.1 921.3 -0.1 90
2019-11-20 08:00:00 5.3 7 Sur 29 Sudoeste 0.2 921.2 -0.6 87
2019-11-20 07:00:00 5.6 12 Sur 23 Sur 0 921.2 -1.4 82
2019-11-20 06:00:00 5.7 6 Sur 15 Sur 0 921.4 -1.7 79
2019-11-20 05:00:00 5.9 5 Sur 15 Sur 0.3 921.8 -1.8 88
2019-11-20 04:00:00 6 2 Este 6 Este 0.6 922.6 -1.4 89
2019-11-20 03:00:00 6.2 2 Sudoeste 13 Sur 0.1 923.1 -1.4 81
2019-11-20 02:00:00 6.8 3 Sudoeste 17 Sur 0 923.6 -1.6 71
2019-11-20 01:00:00 7 8 Sur 18 Sur 0 924 -1.4 69
2019-11-20 00:00:00 6.8 8 Sur 18 Sur 0 924.5 -1.1 70
2019-11-19 23:00:00 6.9 2 Sur 10 Sudeste 0 925.2 -0.6 70
2019-11-19 22:00:00 6.9 5 Sur 12 Sur 0 925.4 -0.1 69
2019-11-19 21:00:00 7.3 3 Sudoeste 10 Sudoeste 0 925.6 0.1 66
2019-11-19 20:00:00 7.6 3 Sudoeste 13 Sudeste 0 925.8 0.1 65
2019-11-19 19:00:00 8 5 Sur 11 Sur 0 925.5 -0.6 62
2019-11-19 18:00:00 8.7 6 Sur 14 Sur 0 925.5 -1 58
2019-11-19 17:00:00 9.6 5 Sur 11 Sudeste 0 925.7 -1.4 50
2019-11-19 16:00:00 9.9 4 Sudoeste 13 Sudoeste 0 926.1 -2.1 47
2019-11-19 15:00:00 10.2 4 Sudoeste 14 Sur 0 926.5 -2.1 51
2019-11-19 14:00:00 9.8 5 Sudoeste 17 Sudoeste 0 927.1 -1.9 53
2019-11-19 13:00:00 8.5 2 Este 6 Este 0 928.2 -1.1 67
2019-11-19 12:00:00 6.9 3 Este 6 Este 0 928.6 -0.4 77
2019-11-19 11:00:00 3.6 4 Este 7 Este 0 929 0.1 91
2019-11-19 10:00:00 1.2 4 Este 6 Nordeste 0 929.3 0.3 95
2019-11-19 09:00:00 0.4 2 Nordeste 7 Este 0 929 0 96
2019-11-19 08:00:00 0.1 3 Este 6 Este 0 928.9 -0.1 96
2019-11-19 07:00:00 0.3 2 Este 6 Este 0 929 -0.3 96
2019-11-19 06:00:00 0.5 0 Calma 6 Sudoeste 0 929 -0.1 96
2019-11-19 05:00:00 0.7 2 Sudeste 11 Sudoeste 0 929 -0.2 96
2019-11-19 04:00:00 1 0 Calma 6 Este 0 929.3 -0.4 94
2019-11-19 03:00:00 1.3 4 Este 8 Nordeste 0 929.1 -0.6 93
2019-11-19 02:00:00 2 0 Calma 4 Este 0 929.2 -0.8 90
2019-11-19 01:00:00 3.1 0 Calma 7 Sudoeste 0 929.7 -0.2 85
2019-11-19 00:00:00 4.2 2 Sur 7 Sudoeste 0 929.7 0.1 81
2019-11-18 23:00:00 4.9 0 Calma 8 Oeste 0 930 0.8 83
2019-11-18 22:00:00 5 6 Oeste 10 Oeste 0 929.9 1.1 82
2019-11-18 21:00:00 5.5 0 Calma 8 Sur 0 929.6 1.3 79
2019-11-18 20:00:00 5.6 0 Calma 5 Este 0 929.2 0.8 79
2019-11-18 19:00:00 6.5 0 Calma 8 Nordeste 0 928.8 0.6 69
2019-11-18 18:00:00 8.9 3 Este 9 Este 0 928.3 0.3 57
2019-11-18 17:00:00 10.1 3 Nordeste 13 Oeste 0 928.4 0.2 53
2019-11-18 16:00:00 9.4 0 Calma 15 Oeste 0 928.2 -0.3 57
2019-11-18 15:00:00 9.9 2 Oeste 13 Norte 0 928 -0.9 58
2019-11-18 14:00:00 9.7 0 Calma 11 Noroeste 0 928.2 -0.5 61
2019-11-18 13:00:00 7.7 0 Calma 9 Nordeste 0 928.5 0.2 65
2019-11-18 12:00:00 7.1 0 Calma 9 Sudeste 0 928.9 1.1 74
2019-11-18 11:00:00 4 3 Sur 7 Sur 0 928.7 1.5 95
2019-11-18 10:00:00 2.9 3 Sudeste 8 Sudeste 0 928.3 1.5 98
2019-11-18 09:00:00 2.3 0 Calma 10 Sudoeste 0 927.8 1.6 98
2019-11-18 08:00:00 2.6 0 Calma 11 Sudoeste 0 927.2 1.7 98
2019-11-18 07:00:00 2.9 3 Oeste 16 Oeste 0 926.8 1.6 97
2019-11-18 06:00:00 2.8 5 Oeste 15 Oeste 0 926.2 1.4 97
2019-11-18 05:00:00 2.5 2 Oeste 7 Sur 0 925.5 0.9 96
2019-11-18 04:00:00 2.4 3 Sudoeste 10 Oeste 0 925.2 0.8 95
2019-11-18 03:00:00 2.8 4 Sudoeste 11 Oeste 0 924.8 0.7 94
2019-11-18 02:00:00 3 6 Oeste 11 Sudoeste 0 924.6 0.3 94
2019-11-18 01:00:00 3.3 4 Sudoeste 10 Sudoeste 0 924.4 0.8 92
2019-11-18 00:00:00 3.7 4 Sudoeste 9 Sudoeste 0 924.1 0.5 90
2019-11-17 23:00:00 4.1 5 Sudoeste 20 Oeste 0 924.3 0.5 86
2019-11-17 22:00:00 5.2 9 Oeste 20 Oeste 0 923.6 0.5 86
2019-11-17 21:00:00 5.7 8 Oeste 16 Oeste 0 923.6 0.8 87
2019-11-17 20:00:00 6.5 10 Oeste 25 Sudoeste 0 923.8 1.4 88
2019-11-17 19:00:00 7.4 10 Oeste 28 Oeste 0.1 923.1 0.4 89
2019-11-17 18:00:00 8.2 14 Oeste 30 Sudoeste 2.3 922.8 -0.6 91
2019-11-17 17:00:00 9.9 10 Oeste 26 Sudoeste 0 922.4 -1.6 90
2019-11-17 16:00:00 10 10 Sudoeste 27 Sudoeste 1.7 922.7 -1.9 93
2019-11-17 15:00:00 10.7 15 Sudoeste 34 Sudoeste 0 923.4 -1.5 82
2019-11-17 14:00:00 10.9 15 Sudoeste 41 Oeste 0.1 924 -1.4 82
2019-11-17 13:00:00 10.1 16 Sudoeste 34 Sur 0 924.6 -1.1 87
2019-11-17 12:00:00 9 14 Sudoeste 30 Sudoeste 0 924.9 -1.1 92
2019-11-17 11:00:00 8.1 10 Sudoeste 26 Sudoeste 0 925.4 -0.2 94
2019-11-17 10:00:00 7.4 9 Sudoeste 18 Oeste 0 925.7 -0.1 92
2019-11-17 09:00:00 5.7 6 Sur 17 Sudoeste 0 926 -0.4 90
2019-11-17 08:00:00 5.1 9 Sur 15 Sur 0 925.6 -0.9 86
2019-11-17 07:00:00 5 8 Sur 22 Sur 0 925.8 -1.3 86
2019-11-17 06:00:00 4.8 10 Sudoeste 18 Sudoeste 0 926.4 -0.9 86
2019-11-17 05:00:00 4.9 8 Sudoeste 18 Sur 0 926.5 -1.3 82
2019-11-17 04:00:00 5 8 Sudoeste 19 Sudoeste 0 927.1 -1.2 81
2019-11-17 03:00:00 4.8 10 Sudoeste 19 Sudoeste 0 927.3 -1 80
2019-11-17 02:00:00 4.7 6 Sudoeste 17 Sudoeste 0 927.8 -0.7 79
2019-11-17 01:00:00 3.9 5 Sudoeste 13 Sudoeste 0 928.3 -0.3 78
2019-11-17 00:00:00 4.1 9 Sudoeste 17 Sudoeste 0 928.3 0 74
2019-11-16 23:00:00 4.1 5 Sudoeste 12 Oeste 0 928.5 0.2 74
2019-11-16 22:00:00 4.2 6 Sudoeste 13 Oeste 0 928.6 0.3 74
2019-11-16 21:00:00 4.6 3 Sur 10 Sur 0 928.3 0.3 74
2019-11-16 20:00:00 4.7 4 Oeste 9 Sudoeste 0 928.3 0.6 71
2019-11-16 19:00:00 5 5 Sudoeste 16 Oeste 0 928.3 0.8 66
2019-11-16 18:00:00 6.1 9 Oeste 22 Oeste 0 928 0.8 60
2019-11-16 17:00:00 7.6 11 Oeste 30 Oeste 0 927.7 0.1 56
2019-11-16 16:00:00 7.9 14 Oeste 29 Sudoeste 0 927.5 -0.3 59
2019-11-16 15:00:00 7.8 11 Sudoeste 26 Sudoeste 0 927.2 -0.6 66
2019-11-16 14:00:00 7 10 Sudoeste 32 Sudoeste 0 927.6 -0.1 68
2019-11-16 13:00:00 6 14 Sudoeste 28 Sudoeste 0 927.8 0.2 72
2019-11-16 12:00:00 5 10 Sur 20 Sur 0 927.8 1 78
2019-11-16 11:00:00 2 7 Sudoeste 19 Sudoeste 0 927.7 1.8 94
2019-11-16 10:00:00 0.6 4 Sudoeste 15 Sudoeste 0 927.6 2.6 96
2019-11-16 09:00:00 0.1 5 Sudoeste 12 Sudoeste 0 926.8 2.2 95
2019-11-16 08:00:00 -0.6 3 Sudoeste 10 Sudoeste 0 925.9 1.7 94
2019-11-16 07:00:00 0 0 Calma 3 Sudoeste 0 925 1.3 93
2019-11-16 06:00:00 0.2 0 Calma 9 Sudoeste 0 924.6 1.4 93
2019-11-16 05:00:00 0.5 0 Calma 13 Oeste 0 924.2 1.6 92
2019-11-16 04:00:00 0.9 7 Oeste 18 Sudoeste 0 923.7 1.2 91
2019-11-16 03:00:00 1.2 4 Sudoeste 11 Oeste 0 923.2 1.4 90
2019-11-16 02:00:00 1.5 5 Sudoeste 13 Sudoeste 0 922.6 1.3 90
2019-11-16 01:00:00 2.1 6 Oeste 12 Oeste 0 922.5 1.8 88
2019-11-16 00:00:00 2.6 6 Oeste 16 Oeste 0 921.8 1.9 85
2019-11-15 23:00:00 3.4 7 Oeste 18 Sudoeste 0 921.3 1.6 81
2019-11-15 22:00:00 3.9 10 Oeste 20 Sudoeste 0 920.7 1.7 78
2019-11-15 21:00:00 3.4 8 Oeste 19 Oeste 0 919.9 1.6 77
2019-11-15 20:00:00 3.8 9 Oeste 19 Oeste 0 919.7 1.5 71
2019-11-15 19:00:00 5.1 11 Oeste 26 Oeste 0 919 0.9 65
2019-11-15 18:00:00 6 15 Oeste 30 Oeste 0 918.3 0.1 59
2019-11-15 17:00:00 7.3 15 Oeste 30 Oeste 0 918.2 -0.2 54
2019-11-15 16:00:00 8.6 12 Oeste 28 Oeste 0 918.1 -0.5 51
2019-11-15 15:00:00 8.1 13 Oeste 28 Oeste 0 918.2 -0.9 53
2019-11-15 14:00:00 7.9 14 Sudoeste 28 Sudoeste 0 918.4 -0.7 56
2019-11-15 13:00:00 6.7 13 Oeste 30 Sudoeste 0 918.6 -0.3 61
2019-11-15 12:00:00 6.4 14 Oeste 30 Oeste 0 919.1 0.4 67
2019-11-15 11:00:00 4.6 13 Oeste 28 Sudoeste 0 919.1 0.8 76
2019-11-15 10:00:00 3.2 12 Oeste 23 Noroeste 0 918.9 1.3 83
2019-11-15 09:00:00 2.4 8 Oeste 18 Oeste 0 918.7 1.3 86
2019-11-15 08:00:00 1.9 9 Oeste 23 Oeste 0 918.3 1 86
2019-11-15 07:00:00 1.9 9 Oeste 21 Oeste 0 917.6 0.2 86
2019-11-15 06:00:00 2.2 12 Oeste 23 Sudoeste 0 917.4 0.1 82
2019-11-15 05:00:00 3 11 Oeste 24 Oeste 0 917.3 0.1 80
2019-11-15 04:00:00 3.3 13 Oeste 31 Noroeste 0 917.4 0.3 78
2019-11-15 03:00:00 3.5 15 Oeste 32 Oeste 0 917.3 0.4 78
2019-11-15 02:00:00 3.7 14 Oeste 30 Oeste 0 917.2 0.5 78
2019-11-15 01:00:00 3.6 11 Oeste 28 Sudoeste 0 917.1 0.9 81
2019-11-15 00:00:00 4 11 Oeste 32 Oeste 0 916.9 1.4 78